createdAt,value
2018-05-07T00:00:00.636Z,3.20
2018-05-07T00:02:28.727Z,3.67
2018-05-07T00:04:56.815Z,3.70
2018-05-07T00:07:24.919Z,3.20
2018-05-07T00:09:53.045Z,4.10
2018-05-07T00:12:21.108Z,3.40
2018-05-07T00:14:49.990Z,3.73
2018-05-07T00:17:18.089Z,3.43
2018-05-07T00:19:46.183Z,3.60
2018-05-07T00:22:15.071Z,3.40
2018-05-07T00:24:43.183Z,3.47
2018-05-07T00:27:11.326Z,3.47
2018-05-07T00:29:39.411Z,3.60
2018-05-07T00:32:07.518Z,3.43
2018-05-07T00:34:36.391Z,3.90
2018-05-07T00:37:04.483Z,4.30
2018-05-07T00:39:32.591Z,3.97
2018-05-07T00:42:01.483Z,3.63
2018-05-07T00:44:29.662Z,3.73
2018-05-07T00:46:57.791Z,3.90
2018-05-07T00:49:25.870Z,3.57
2018-05-07T00:51:54.901Z,3.90
2018-05-07T00:54:23.019Z,4.00
2018-05-07T00:56:51.144Z,3.60
2018-05-07T00:59:19.997Z,3.80
2018-05-07T01:01:48.145Z,3.97
2018-05-07T01:04:16.297Z,3.67
2018-05-07T01:06:44.457Z,3.87
2018-05-07T01:09:12.572Z,3.80
2018-05-07T01:11:40.650Z,3.83
2018-05-07T01:14:09.525Z,3.60
2018-05-07T01:16:37.646Z,3.60
2018-05-07T01:19:06.494Z,3.53
2018-05-07T01:21:34.603Z,3.97
2018-05-07T01:24:02.725Z,3.83
2018-05-07T01:26:31.592Z,3.83
2018-05-07T01:28:59.739Z,4.23
2018-05-07T01:31:27.885Z,3.83
2018-05-07T01:33:55.987Z,4.20
2018-05-07T01:36:24.847Z,3.90
2018-05-07T01:38:52.947Z,4.33
2018-05-07T01:41:21.127Z,4.00
2018-05-07T01:43:49.231Z,3.97
2018-05-07T01:46:17.340Z,3.93
2018-05-07T01:48:45.449Z,4.03
2018-05-07T01:51:13.535Z,4.60
2018-05-07T01:53:41.659Z,4.57
2018-05-07T01:56:09.772Z,4.30
2018-05-07T01:58:38.631Z,4.33
2018-05-07T02:01:06.731Z,4.40
2018-05-07T02:03:34.868Z,4.40
2018-05-07T02:06:02.950Z,4.43
2018-05-07T02:08:31.035Z,4.30
2018-05-07T02:10:59.149Z,4.77
2018-05-07T02:13:27.216Z,4.30
2018-05-07T02:15:55.301Z,4.03
2018-05-07T02:18:23.455Z,4.40
2018-05-07T02:20:52.280Z,4.10
2018-05-07T02:23:20.400Z,4.17
2018-05-07T02:25:48.498Z,4.40
2018-05-07T02:28:17.408Z,4.20
2018-05-07T02:30:45.522Z,4.13
2018-05-07T02:33:14.375Z,4.33
2018-05-07T02:35:42.458Z,4.67
2018-05-07T02:38:10.628Z,4.17
2018-05-07T02:40:38.708Z,4.33
2018-05-07T02:43:06.835Z,4.43
2018-05-07T02:45:35.734Z,3.90
2018-05-07T02:48:03.855Z,4.20
2018-05-07T02:50:32.704Z,3.90
2018-05-07T02:53:00.853Z,4.53
2018-05-07T02:55:28.943Z,4.17
2018-05-07T02:57:57.103Z,5.07
2018-05-07T03:00:26.000Z,4.70
2018-05-07T03:02:54.131Z,4.63
2018-05-07T03:05:22.215Z,4.60
2018-05-07T03:07:50.360Z,4.00
2018-05-07T03:10:19.265Z,4.30
2018-05-07T03:12:48.168Z,4.53
2018-05-07T03:15:16.237Z,4.20
2018-05-07T03:17:44.329Z,4.60
2018-05-07T03:20:13.187Z,4.90
2018-05-07T03:22:41.313Z,4.50
2018-05-07T03:25:10.166Z,4.53
2018-05-07T03:27:38.289Z,4.50
2018-05-07T03:30:06.437Z,4.33
2018-05-07T03:32:34.556Z,4.93
2018-05-07T03:35:02.661Z,5.20
2018-05-07T03:37:31.537Z,5.37
2018-05-07T03:39:59.621Z,5.43
2018-05-07T03:42:27.735Z,4.67
2018-05-07T03:44:56.602Z,4.37
2018-05-07T03:47:24.696Z,4.97
2018-05-07T03:49:52.799Z,5.50
2018-05-07T03:52:21.704Z,4.50
2018-05-07T03:54:49.810Z,4.80
2018-05-07T03:57:17.963Z,5.10
2018-05-07T03:59:46.926Z,8.40
2018-05-07T04:02:14.991Z,6.77
2018-05-07T04:04:43.077Z,5.43
2018-05-07T04:07:11.147Z,4.90
2018-05-07T04:09:40.008Z,5.73
2018-05-07T04:12:08.118Z,5.20
2018-05-07T04:14:36.223Z,5.10
2018-05-07T04:17:16.227Z,5.20
2018-05-07T04:19:56.207Z,5.03
2018-05-07T04:22:36.107Z,5.33
2018-05-07T04:25:05.011Z,5.93
2018-05-07T04:27:33.878Z,5.47
2018-05-07T04:30:01.949Z,4.27
2018-05-07T04:32:30.041Z,4.50
2018-05-07T04:34:58.145Z,3.87
2018-05-07T04:37:26.236Z,3.23
2018-05-07T04:39:54.337Z,3.47
2018-05-07T04:42:23.179Z,3.30
2018-05-07T04:44:51.271Z,3.50
2018-05-07T04:47:19.368Z,4.70
2018-05-07T04:49:47.454Z,3.60
2018-05-07T04:52:15.571Z,3.77
2018-05-07T04:54:44.439Z,4.53
2018-05-07T04:57:12.540Z,4.37
2018-05-07T04:59:40.662Z,3.40
2018-05-07T05:02:09.492Z,3.70
2018-05-07T05:04:37.592Z,3.30
2018-05-07T05:07:05.796Z,4.47
2018-05-07T05:09:34.597Z,3.33
2018-05-07T05:12:02.692Z,4.17
2018-05-07T05:14:30.795Z,3.90
2018-05-07T05:16:59.688Z,3.87
2018-05-07T05:19:27.788Z,4.17
2018-05-07T05:21:56.619Z,4.20
2018-05-07T05:24:24.703Z,3.47
2018-05-07T05:26:52.821Z,4.27
2018-05-07T05:29:20.913Z,3.60
2018-05-07T05:31:49.054Z,3.33
2018-05-07T05:34:17.147Z,4.03
2018-05-07T05:36:45.228Z,3.60
2018-05-07T05:39:13.322Z,4.57
2018-05-07T05:41:41.418Z,2.97
2018-05-07T05:44:09.532Z,3.80
2018-05-07T05:46:37.635Z,3.80
2018-05-07T05:49:05.696Z,3.20
2018-05-07T05:51:33.830Z,3.77
2018-05-07T05:54:01.931Z,4.50
2018-05-07T05:56:30.114Z,4.50
2018-05-07T05:58:58.201Z,8.40
2018-05-07T06:01:26.298Z,3.70
2018-05-07T06:03:54.380Z,4.20
2018-05-07T06:06:22.477Z,4.50
2018-05-07T06:08:50.571Z,4.03
2018-05-07T06:11:18.659Z,4.12
2018-05-07T06:13:46.759Z,3.62
2018-05-07T06:16:15.637Z,5.07
2018-05-07T06:18:43.695Z,5.25
2018-05-07T06:21:11.884Z,3.97
2018-05-07T06:23:39.983Z,3.65
2018-05-07T06:26:08.175Z,4.20
2018-05-07T06:28:36.268Z,4.18
2018-05-07T06:31:04.372Z,3.87
2018-05-07T06:33:33.218Z,3.40
2018-05-07T06:36:01.352Z,3.72
2018-05-07T06:38:29.406Z,4.43
2018-05-07T06:40:57.524Z,4.50
2018-05-07T06:43:26.429Z,3.80
2018-05-07T06:45:54.511Z,3.80
2018-05-07T06:48:22.584Z,4.50
2018-05-07T06:50:51.471Z,3.80
2018-05-07T06:53:19.539Z,3.25
2018-05-07T06:55:47.630Z,3.17
2018-05-07T06:58:15.730Z,2.95
2018-05-07T07:00:44.598Z,3.00
2018-05-07T07:03:12.660Z,2.90
2018-05-07T07:05:40.788Z,2.55
2018-05-07T07:08:08.949Z,3.00
2018-05-07T07:10:36.984Z,2.65
2018-05-07T07:13:05.052Z,2.45
2018-05-07T07:15:33.170Z,2.70
2018-05-07T07:18:02.002Z,2.80
2018-05-07T07:20:30.069Z,2.80
2018-05-07T07:22:58.162Z,2.70
2018-05-07T07:25:26.284Z,3.57
2018-05-07T07:27:54.489Z,3.30
2018-05-07T07:30:22.530Z,3.00
2018-05-07T07:32:50.639Z,3.33
2018-05-07T07:35:18.704Z,2.97
2018-05-07T07:37:46.804Z,3.20
2018-05-07T07:40:14.895Z,2.83
2018-05-07T07:42:42.999Z,2.95
2018-05-07T07:45:11.146Z,2.83
2018-05-07T07:47:39.218Z,2.92
2018-05-07T07:50:07.309Z,2.75
2018-05-07T07:52:35.414Z,2.70
2018-05-07T07:55:03.517Z,2.67
2018-05-07T07:57:31.599Z,2.60
2018-05-07T07:59:59.666Z,2.87
2018-05-07T08:02:27.746Z,2.55
2018-05-07T08:04:55.803Z,2.70
2018-05-07T08:07:23.930Z,2.80
2018-05-07T08:09:52.009Z,2.67
2018-05-07T08:12:20.242Z,2.92
2018-05-07T08:14:48.266Z,2.65
2018-05-07T08:17:16.340Z,3.00
2018-05-07T08:19:44.415Z,2.58
2018-05-07T08:22:12.519Z,2.83
2018-05-07T08:24:40.655Z,2.87
2018-05-07T08:27:08.690Z,2.62
2018-05-07T08:29:36.804Z,2.97
2018-05-07T08:32:04.911Z,3.03
2018-05-07T08:34:33.759Z,2.60
2018-05-07T08:37:01.913Z,2.60
2018-05-07T08:39:30.753Z,2.42
2018-05-07T08:41:58.829Z,2.50
2018-05-07T08:44:26.939Z,2.55
2018-05-07T08:46:55.019Z,2.58
2018-05-07T08:49:23.113Z,2.97
2018-05-07T08:51:51.190Z,2.75
2018-05-07T08:54:19.310Z,2.80
2018-05-07T08:56:48.181Z,2.40
2018-05-07T08:59:16.274Z,2.80
2018-05-07T09:01:44.383Z,2.58
2018-05-07T09:04:13.249Z,2.40
2018-05-07T09:06:41.347Z,2.67
2018-05-07T09:09:09.477Z,2.97
2018-05-07T09:11:37.581Z,2.53
2018-05-07T09:14:05.676Z,2.70
2018-05-07T09:16:33.768Z,2.72
2018-05-07T09:19:01.866Z,2.65
2018-05-07T09:21:29.950Z,2.58
2018-05-07T09:23:58.074Z,2.72
2018-05-07T09:26:26.919Z,2.78
2018-05-07T09:28:55.007Z,3.12
2018-05-07T09:31:23.190Z,2.90
2018-05-07T09:33:51.215Z,2.60
2018-05-07T09:36:19.287Z,2.58
2018-05-07T09:38:47.386Z,2.67
2018-05-07T09:41:15.468Z,2.40
2018-05-07T09:43:43.556Z,2.42
2018-05-07T09:46:11.669Z,2.60
2018-05-07T09:48:39.784Z,3.08
2018-05-07T09:51:07.866Z,2.42
2018-05-07T09:53:35.948Z,2.45
2018-05-07T09:56:04.080Z,2.70
2018-05-07T09:58:32.159Z,2.80
2018-05-07T10:01:00.229Z,2.45
2018-05-07T10:03:28.320Z,2.50
2018-05-07T10:05:56.419Z,2.60
2018-05-07T10:08:25.310Z,2.33
2018-05-07T10:10:53.399Z,2.80
2018-05-07T10:13:22.257Z,2.65
2018-05-07T10:15:50.341Z,2.70
2018-05-07T10:18:18.373Z,2.72
2018-05-07T10:20:46.441Z,2.25
2018-05-07T10:23:14.478Z,2.67
2018-05-07T10:25:42.542Z,2.45
2018-05-07T10:28:11.359Z,2.53
2018-05-07T10:30:39.394Z,2.33
2018-05-07T10:33:08.949Z,2.62
2018-05-07T10:35:37.758Z,2.17
2018-05-07T10:38:05.809Z,2.60
2018-05-07T10:40:33.836Z,2.33
2018-05-07T10:43:01.894Z,2.33
2018-05-07T10:45:30.703Z,2.35
2018-05-07T10:47:59.517Z,2.08
2018-05-07T10:50:27.572Z,2.30
2018-05-07T10:52:55.611Z,2.12
2018-05-07T10:55:23.674Z,2.30
2018-05-07T10:57:51.738Z,2.10
2018-05-07T11:00:20.542Z,2.05
2018-05-07T11:02:48.591Z,2.05
2018-05-07T11:05:16.625Z,1.98
2018-05-07T11:07:44.670Z,2.10
2018-05-07T11:10:12.714Z,2.20
2018-05-07T11:12:40.776Z,2.00
2018-05-07T11:15:08.821Z,2.30
2018-05-07T11:17:36.867Z,2.20
2018-05-07T11:20:04.911Z,2.20
2018-05-07T11:22:33.723Z,2.10
2018-05-07T11:25:01.779Z,1.80
2018-05-07T11:27:29.815Z,2.30
2018-05-07T11:29:57.862Z,2.12
2018-05-07T11:32:26.680Z,2.35
2018-05-07T11:34:54.714Z,2.05
2018-05-07T11:37:24.272Z,1.95
2018-05-07T11:39:53.081Z,2.27
2018-05-07T11:42:21.123Z,2.10
2018-05-07T11:44:49.166Z,2.07
2018-05-07T11:47:17.286Z,1.90
2018-05-07T11:49:46.035Z,2.10
2018-05-07T11:52:14.077Z,2.07
2018-05-07T11:54:42.138Z,2.00
2018-05-07T11:57:10.171Z,2.00
2018-05-07T11:59:38.977Z,1.92
2018-05-07T12:02:07.014Z,2.00
2018-05-07T12:04:35.061Z,2.30
2018-05-07T12:07:03.105Z,1.80
2018-05-07T12:09:31.156Z,2.10
2018-05-07T12:11:59.216Z,2.20
2018-05-07T12:14:27.244Z,1.98
2018-05-07T12:16:55.289Z,1.87
2018-05-07T12:19:23.335Z,2.40
2018-05-07T12:21:52.153Z,1.90
2018-05-07T12:24:20.203Z,2.40
2018-05-07T12:26:49.751Z,2.60
2018-05-07T12:29:17.810Z,1.90
2018-05-07T12:31:46.011Z,2.20
2018-05-07T12:34:13.890Z,1.80
2018-05-07T12:36:41.940Z,1.80
2018-05-07T12:39:09.986Z,2.15
2018-05-07T12:41:38.040Z,1.90
2018-05-07T12:44:06.868Z,1.75
2018-05-07T12:46:34.919Z,2.03
2018-05-07T12:49:03.735Z,1.85
2018-05-07T12:51:33.368Z,2.00
2018-05-07T12:54:01.406Z,1.80
2018-05-07T12:56:29.455Z,2.15
2018-05-07T12:58:57.488Z,1.85
2018-05-07T13:01:25.540Z,1.80
2018-05-07T13:03:53.580Z,2.17
2018-05-07T13:06:21.632Z,2.05
2018-05-07T13:08:49.679Z,1.62
2018-05-07T13:11:17.724Z,1.70
2018-05-07T13:13:45.770Z,1.60
2018-05-07T13:16:13.810Z,1.70
2018-05-07T13:18:41.846Z,1.70
2018-05-07T13:21:09.901Z,1.98
2018-05-07T13:23:37.943Z,1.77
2018-05-07T13:26:06.758Z,1.80
2018-05-07T13:28:34.792Z,1.70
2018-05-07T13:31:02.833Z,1.60
2018-05-07T13:33:30.876Z,1.60
2018-05-07T13:35:58.923Z,2.10
2018-05-07T13:38:26.966Z,1.70
2018-05-07T13:40:55.790Z,2.10
2018-05-07T13:43:23.890Z,1.67
2018-05-07T13:45:51.914Z,1.65
2018-05-07T13:48:20.737Z,1.70
2018-05-07T13:50:48.799Z,1.67
2018-05-07T13:53:16.840Z,1.60
2018-05-07T13:55:44.883Z,2.08
2018-05-07T13:58:13.680Z,2.05
2018-05-07T14:00:42.488Z,1.65
2018-05-07T14:03:11.300Z,1.60
2018-05-07T14:05:39.347Z,1.83
2018-05-07T14:08:07.383Z,1.70
2018-05-07T14:10:35.441Z,1.55
2018-05-07T14:13:04.242Z,1.55
2018-05-07T14:15:33.052Z,2.05
2018-05-07T14:18:01.135Z,1.77
2018-05-07T14:20:30.004Z,1.70
2018-05-07T14:22:58.106Z,1.70
2018-05-07T14:25:27.024Z,1.92
2018-05-07T14:27:55.905Z,2.03
2018-05-07T14:30:24.013Z,1.98
2018-05-07T14:32:52.893Z,1.90
2018-05-07T14:35:20.936Z,1.65
2018-05-07T14:37:49.400Z,1.75
2018-05-07T14:40:17.538Z,1.50
2018-05-07T14:42:45.631Z,1.60
2018-05-07T14:45:13.715Z,1.90
2018-05-07T14:47:41.815Z,2.00
2018-05-07T14:50:09.922Z,1.50
2018-05-07T14:52:38.784Z,1.58
2018-05-07T14:55:06.880Z,1.60
2018-05-07T14:57:34.976Z,1.73
2018-05-07T15:00:03.060Z,2.22
2018-05-07T15:02:31.929Z,1.60
2018-05-07T15:05:00.035Z,2.22
2018-05-07T15:07:28.149Z,1.95
2018-05-07T15:09:57.011Z,1.90
2018-05-07T15:12:25.130Z,1.85
2018-05-07T15:14:54.010Z,1.80
2018-05-07T15:17:22.169Z,1.83
2018-05-07T15:19:50.273Z,1.90
2018-05-07T15:22:19.861Z,1.60
2018-05-07T15:24:47.965Z,2.27
2018-05-07T15:27:16.109Z,2.00
2018-05-07T15:29:44.221Z,1.50
2018-05-07T15:32:12.301Z,2.00
2018-05-07T15:34:40.388Z,1.73
2018-05-07T15:37:08.507Z,1.80
2018-05-07T15:39:36.615Z,2.00
2018-05-07T15:42:05.475Z,2.00
2018-05-07T15:44:33.589Z,2.00
2018-05-07T15:47:01.687Z,2.00
2018-05-07T15:49:29.789Z,2.03
2018-05-07T15:51:58.704Z,2.03
2018-05-07T15:54:26.808Z,2.57
2018-05-07T15:56:54.933Z,2.20
2018-05-07T15:59:23.001Z,1.97
2018-05-07T16:01:51.109Z,1.87
2018-05-07T16:04:19.932Z,2.10
2018-05-07T16:06:48.889Z,2.30
2018-05-07T16:09:17.007Z,2.27
2018-05-07T16:11:45.889Z,1.90
2018-05-07T16:14:13.985Z,2.20
2018-05-07T16:16:42.067Z,2.13
2018-05-07T16:19:10.164Z,2.10
2018-05-07T16:21:39.029Z,2.10
2018-05-07T16:24:07.112Z,2.03
2018-05-07T16:26:35.293Z,1.83
2018-05-07T16:29:03.277Z,2.30
2018-05-07T16:31:31.420Z,2.30
2018-05-07T16:34:00.260Z,2.37
2018-05-07T16:36:28.372Z,2.43
2018-05-07T16:38:56.492Z,2.40
2018-05-07T16:41:24.573Z,2.10
2018-05-07T16:43:53.473Z,2.23
2018-05-07T16:46:22.320Z,2.20
2018-05-07T16:48:50.405Z,2.00
2018-05-07T16:51:18.524Z,2.00
2018-05-07T16:53:46.624Z,2.17
2018-05-07T16:56:15.504Z,2.60
2018-05-07T16:58:43.598Z,2.90
2018-05-07T17:01:11.703Z,2.30
2018-05-07T17:03:39.818Z,2.03
2018-05-07T17:06:07.887Z,2.70
2018-05-07T17:08:36.012Z,2.60
2018-05-07T17:11:04.103Z,2.30
2018-05-07T17:13:32.220Z,2.43
2018-05-07T17:16:00.322Z,3.10
2018-05-07T17:18:29.228Z,2.40
2018-05-07T17:20:57.323Z,2.27
2018-05-07T17:23:25.477Z,2.33
2018-05-07T17:25:53.540Z,2.60
2018-05-07T17:28:21.642Z,3.13
2018-05-07T17:30:49.717Z,2.47
2018-05-07T17:33:17.855Z,2.53
2018-05-07T17:35:45.922Z,2.60
2018-05-07T17:38:14.792Z,2.60
2018-05-07T17:40:42.855Z,2.30
2018-05-07T17:43:10.931Z,2.50
2018-05-07T17:45:57.875Z,2.00
2018-05-07T17:48:37.797Z,2.30
2018-05-07T17:51:05.875Z,3.03
2018-05-07T17:53:33.994Z,2.57
2018-05-07T17:56:02.088Z,2.57
2018-05-07T17:58:30.185Z,2.80
2018-05-07T18:00:58.293Z,2.97
2018-05-07T18:03:27.941Z,2.90
2018-05-07T18:05:56.098Z,2.80
2018-05-07T18:08:24.248Z,2.13
2018-05-07T18:10:52.314Z,2.77
2018-05-07T18:13:20.445Z,2.60
2018-05-07T18:15:48.563Z,2.70
2018-05-07T18:18:17.520Z,2.33
2018-05-07T18:20:45.608Z,2.70
2018-05-07T18:23:13.729Z,2.37
2018-05-07T18:25:42.617Z,2.50
2018-05-07T18:28:10.733Z,2.43
2018-05-07T18:30:38.836Z,2.57
2018-05-07T18:33:06.953Z,2.73
2018-05-07T18:35:35.082Z,2.30
2018-05-07T18:38:03.938Z,2.67
2018-05-07T18:40:32.003Z,2.83
2018-05-07T18:43:00.081Z,2.80
2018-05-07T18:45:28.169Z,2.30
2018-05-07T18:47:56.284Z,2.60
2018-05-07T18:50:24.401Z,2.10
2018-05-07T18:52:52.487Z,2.57
2018-05-07T18:55:21.463Z,2.30
2018-05-07T18:57:49.567Z,2.40
2018-05-07T19:00:18.434Z,2.50
2018-05-07T19:02:46.523Z,2.30
2018-05-07T19:05:14.676Z,1.97
2018-05-07T19:07:42.774Z,2.60
2018-05-07T19:10:10.863Z,2.37
2018-05-07T19:12:39.036Z,2.47
2018-05-07T19:15:07.130Z,2.83
2018-05-07T19:17:35.179Z,2.70
2018-05-07T19:20:04.201Z,2.40
2018-05-07T19:22:33.175Z,2.50
2018-05-07T19:25:01.410Z,3.07
2018-05-07T19:27:29.523Z,3.07
2018-05-07T19:29:57.667Z,2.17
2018-05-07T19:32:25.735Z,2.60
2018-05-07T19:34:54.587Z,2.50
2018-05-07T19:37:22.909Z,2.50
2018-05-07T19:39:51.107Z,2.63
2018-05-07T19:42:19.156Z,2.90
2018-05-07T19:44:47.388Z,4.37
2018-05-07T19:47:16.336Z,9.10
2018-05-07T19:49:44.471Z,5.47
2018-05-07T19:52:13.401Z,4.10
2018-05-07T19:54:41.544Z,4.00
2018-05-07T19:57:09.791Z,3.90
2018-05-07T19:59:38.032Z,3.80
2018-05-07T20:02:07.201Z,4.60
2018-05-07T20:04:35.289Z,5.23
2018-05-07T20:07:03.654Z,5.30
2018-05-07T20:09:31.756Z,4.63
2018-05-07T20:11:59.894Z,5.00
2018-05-07T20:14:27.971Z,5.90
2018-05-07T20:16:56.121Z,4.23
2018-05-07T20:19:24.208Z,4.73
2018-05-07T20:21:53.295Z,4.70
2018-05-07T20:24:21.399Z,4.63
2018-05-07T20:26:49.496Z,4.83
2018-05-07T20:29:17.605Z,4.17
2018-05-07T20:31:45.742Z,4.10
2018-05-07T20:34:13.835Z,4.33
2018-05-07T20:36:41.922Z,4.73
2018-05-07T20:39:10.031Z,4.77
2018-05-07T20:41:38.172Z,3.90
2018-05-07T20:44:06.274Z,3.93
2018-05-07T20:46:34.444Z,3.67
2018-05-07T20:49:02.570Z,3.60
2018-05-07T20:51:30.697Z,3.93
2018-05-07T20:53:59.564Z,5.00
2018-05-07T20:56:27.697Z,4.50
2018-05-07T20:58:55.828Z,3.53
2018-05-07T21:01:23.927Z,3.20
2018-05-07T21:03:52.020Z,3.60
2018-05-07T21:06:20.125Z,3.77
2018-05-07T21:08:48.328Z,3.00
2018-05-07T21:11:16.576Z,3.33
2018-05-07T21:13:44.720Z,3.33
2018-05-07T21:16:12.860Z,3.80
2018-05-07T21:18:40.992Z,5.20
2018-05-07T21:21:09.114Z,3.77
2018-05-07T21:23:37.207Z,3.80
2018-05-07T21:26:05.333Z,3.33
2018-05-07T21:28:33.415Z,3.60
2018-05-07T21:31:01.539Z,4.30
2018-05-07T21:33:29.644Z,3.90
2018-05-07T21:35:57.760Z,5.73
2018-05-07T21:38:25.885Z,5.00
2018-05-07T21:40:53.997Z,3.93
2018-05-07T21:43:22.107Z,4.77
2018-05-07T21:45:51.095Z,5.80
2018-05-07T21:48:19.283Z,3.83
2018-05-07T21:50:48.163Z,5.43
2018-05-07T21:53:16.279Z,4.53
2018-05-07T21:55:45.189Z,5.97
2018-05-07T21:58:13.279Z,4.20
2018-05-07T22:00:41.371Z,3.77
2018-05-07T22:03:09.500Z,3.90
2018-05-07T22:05:37.615Z,4.00
2018-05-07T22:08:06.679Z,3.70
2018-05-07T22:10:34.693Z,3.73
2018-05-07T22:13:02.856Z,4.40
2018-05-07T22:15:30.939Z,4.60
2018-05-07T22:17:59.097Z,4.97
2018-05-07T22:20:27.180Z,4.37
2018-05-07T22:22:55.336Z,4.17
2018-05-07T22:25:24.227Z,4.30
2018-05-07T22:27:52.347Z,4.57
2018-05-07T22:30:20.444Z,4.63
2018-05-07T22:32:48.571Z,4.40
2018-05-07T22:35:16.678Z,4.00
2018-05-07T22:37:44.781Z,3.90
2018-05-07T22:40:13.640Z,3.90
2018-05-07T22:42:41.773Z,4.30
2018-05-07T22:45:09.891Z,6.00
2018-05-07T22:47:38.041Z,4.27
2018-05-07T22:50:06.136Z,5.50
2018-05-07T22:52:34.272Z,4.70
2018-05-07T22:55:02.445Z,4.40
2018-05-07T22:57:30.536Z,4.10
2018-05-07T22:59:58.616Z,4.23
2018-05-07T23:02:26.720Z,4.83
2018-05-07T23:04:54.834Z,4.83
2018-05-07T23:07:23.704Z,4.50
2018-05-07T23:09:51.816Z,5.17
2018-05-07T23:12:20.669Z,4.27
2018-05-07T23:14:48.808Z,5.17
2018-05-07T23:17:16.878Z,4.90
2018-05-07T23:19:46.499Z,4.70
2018-05-07T23:22:14.602Z,5.40
2018-05-07T23:24:43.480Z,4.77
2018-05-07T23:27:11.631Z,4.83
2018-05-07T23:29:39.764Z,4.53
2018-05-07T23:32:08.632Z,4.80
2018-05-07T23:34:36.732Z,5.07
2018-05-07T23:37:04.834Z,5.40
2018-05-07T23:39:32.898Z,4.87
2018-05-07T23:42:00.997Z,4.90
2018-05-07T23:44:29.106Z,6.40
2018-05-07T23:46:57.969Z,7.57
2018-05-07T23:49:26.062Z,6.67
2018-05-07T23:51:54.201Z,5.77
2018-05-07T23:54:22.264Z,5.50
2018-05-07T23:56:50.381Z,5.50
2018-05-07T23:59:18.441Z,5.37
